createdAt,value
2022-10-31T00:02:41.002Z,98662.22
2022-10-31T00:05:46.254Z,98674.56
2022-10-31T00:08:55.443Z,98668.94
2022-10-31T00:12:02.414Z,98662.22
2022-10-31T00:15:07.921Z,98665.44
2022-10-31T00:18:14.671Z,98666.53
2022-10-31T00:21:21.334Z,98662.22
2022-10-31T00:24:26.062Z,98665.97
2022-10-31T00:27:31.065Z,98668.41
2022-10-31T00:30:36.126Z,98665.47
2022-10-31T00:33:43.016Z,98668.38
2022-10-31T00:36:47.956Z,98670.00
2022-10-31T00:39:54.762Z,98669.69
2022-10-31T00:42:59.950Z,98666.75
2022-10-31T00:46:04.973Z,98671.84
2022-10-31T00:49:13.072Z,98670.50
2022-10-31T00:52:18.279Z,98669.16
2022-10-31T00:55:23.292Z,98660.84
2022-10-31T00:58:28.122Z,98667.28
2022-10-31T01:01:34.767Z,98675.59
2022-10-31T01:04:41.718Z,98659.75
2022-10-31T01:07:47.049Z,98664.03
2022-10-31T01:11:02.403Z,98661.91
2022-10-31T01:14:07.098Z,98651.44
2022-10-31T01:17:11.973Z,98654.38
2022-10-31T01:20:20.461Z,98664.81
2022-10-31T01:23:25.636Z,98659.44
2022-10-31T01:26:32.044Z,98664.28
2022-10-31T01:29:36.739Z,98662.94
2022-10-31T01:32:41.468Z,98660.00
2022-10-31T01:35:48.066Z,98648.72
2022-10-31T01:38:53.710Z,98665.13
2022-10-31T01:41:58.895Z,98655.97
2022-10-31T01:45:05.301Z,98663.50
2022-10-31T01:48:18.825Z,98658.63
2022-10-31T01:51:30.812Z,98654.34
2022-10-31T01:54:38.703Z,98651.41
2022-10-31T01:57:50.193Z,98644.69
2022-10-31T02:01:01.764Z,98651.13
2022-10-31T02:04:11.079Z,98656.22
2022-10-31T02:07:23.753Z,98651.13
2022-10-31T02:10:33.435Z,98647.63
2022-10-31T02:13:38.423Z,98643.88
2022-10-31T02:16:43.045Z,98647.09
2022-10-31T02:19:59.129Z,98646.31
2022-10-31T02:23:37.085Z,98647.66
2022-10-31T02:26:58.142Z,98653.28
2022-10-31T02:30:17.286Z,98645.75
2022-10-31T02:33:28.810Z,98658.91
2022-10-31T02:36:42.055Z,98657.81
2022-10-31T02:39:55.036Z,98654.88
2022-10-31T02:43:08.142Z,98656.22
2022-10-31T02:46:20.824Z,98649.78
2022-10-31T02:49:35.081Z,98648.69
2022-10-31T02:52:40.098Z,98645.47
2022-10-31T02:55:58.211Z,98644.09
2022-10-31T02:59:08.090Z,98652.94
2022-10-31T03:02:38.617Z,98655.06
2022-10-31T03:05:56.112Z,98644.34
2022-10-31T03:09:09.811Z,98637.88
2022-10-31T03:12:18.435Z,98646.47
2022-10-31T03:15:28.203Z,98647.56
2022-10-31T03:18:39.478Z,98645.41
2022-10-31T03:21:49.742Z,98648.84
2022-10-31T03:24:58.186Z,98647.53
2022-10-31T03:28:05.879Z,98647.50
2022-10-31T03:31:12.872Z,98649.13
2022-10-31T03:34:21.038Z,98653.44
2022-10-31T03:37:30.139Z,98648.59
2022-10-31T03:40:37.889Z,98657.44
2022-10-31T03:43:49.050Z,98653.44
2022-10-31T03:46:54.249Z,98651.53
2022-10-31T03:50:02.010Z,98657.69
2022-10-31T03:53:15.094Z,98645.66
2022-10-31T03:56:25.625Z,98645.13
2022-10-31T03:59:35.173Z,98652.09
2022-10-31T04:02:45.496Z,98655.00
2022-10-31T04:05:52.492Z,98648.31
2022-10-31T04:09:05.146Z,98648.84
2022-10-31T04:12:12.046Z,98645.63
2022-10-31T04:15:17.141Z,98639.97
2022-10-31T04:18:21.932Z,98635.91
2022-10-31T04:21:30.827Z,98638.34
2022-10-31T04:24:37.217Z,98635.34
2022-10-31T04:27:42.006Z,98638.31
2022-10-31T04:30:47.395Z,98637.75
2022-10-31T04:33:52.676Z,98631.31
2022-10-31T04:36:57.797Z,98629.97
2022-10-31T04:40:07.636Z,98631.56
2022-10-31T04:43:12.417Z,98625.66
2022-10-31T04:46:17.435Z,98620.56
2022-10-31T04:49:22.038Z,98618.66
2022-10-31T04:52:26.455Z,98615.41
2022-10-31T04:55:33.384Z,98613.50
2022-10-31T04:58:39.849Z,98612.97
2022-10-31T05:01:45.133Z,98610.31
2022-10-31T05:04:49.982Z,98605.47
2022-10-31T05:07:57.411Z,98602.78
2022-10-31T05:11:05.264Z,98593.91
2022-10-31T05:14:10.292Z,98594.72
2022-10-31T05:17:15.464Z,98602.72
2022-10-31T05:20:22.837Z,98600.38
2022-10-31T05:23:27.943Z,98599.53
2022-10-31T05:26:34.213Z,98599.78
2022-10-31T05:29:39.404Z,98597.88
2022-10-31T05:32:46.067Z,98599.00
2022-10-31T05:35:54.233Z,98598.44
2022-10-31T05:38:59.442Z,98599.22
2022-10-31T05:42:06.858Z,98594.13
2022-10-31T05:45:15.070Z,98588.13
2022-10-31T05:48:19.921Z,98589.47
2022-10-31T05:51:25.166Z,98592.94
2022-10-31T05:54:31.863Z,98592.94
2022-10-31T05:57:38.202Z,98589.47
2022-10-31T06:00:45.798Z,98588.41
2022-10-31T06:03:50.855Z,98588.94
2022-10-31T06:06:58.896Z,98586.47
2022-10-31T06:10:03.784Z,98583.78
2022-10-31T06:13:10.293Z,98581.38
2022-10-31T06:16:15.534Z,98575.75
2022-10-31T06:19:22.244Z,98587.84
2022-10-31T06:22:28.863Z,98580.34
2022-10-31T06:25:34.835Z,98586.03
2022-10-31T06:28:41.008Z,98580.16
2022-10-31T06:31:45.669Z,98581.28
2022-10-31T06:34:51.744Z,98582.38
2022-10-31T06:37:56.799Z,98582.66
2022-10-31T06:41:06.031Z,98582.69
2022-10-31T06:44:12.413Z,98585.09
2022-10-31T06:47:16.968Z,98585.66
2022-10-31T06:50:21.773Z,98582.78
2022-10-31T06:53:28.235Z,98584.94
2022-10-31T06:56:33.231Z,98589.75
2022-10-31T06:59:39.791Z,98594.06
2022-10-31T07:02:44.958Z,98589.28
2022-10-31T07:05:49.652Z,98589.28
2022-10-31T07:08:54.995Z,98587.44
2022-10-31T07:11:59.992Z,98586.91
2022-10-31T07:15:07.838Z,98591.50
2022-10-31T07:18:14.092Z,98596.06
2022-10-31T07:21:19.478Z,98596.91
2022-10-31T07:24:25.287Z,98603.38
2022-10-31T07:27:31.415Z,98593.16
2022-10-31T07:30:38.324Z,98593.41
2022-10-31T07:33:45.516Z,98593.97
2022-10-31T07:36:50.110Z,98598.00
2022-10-31T07:39:55.864Z,98596.63
2022-10-31T07:43:02.080Z,98592.06
2022-10-31T07:46:10.647Z,98593.66
2022-10-31T07:49:15.495Z,98583.97
2022-10-31T07:52:20.156Z,98590.94
2022-10-31T07:55:24.890Z,98590.38
2022-10-31T07:58:29.839Z,98589.53
2022-10-31T08:01:35.725Z,98580.91
2022-10-31T08:04:40.419Z,98583.28
2022-10-31T08:07:45.057Z,98591.84
2022-10-31T08:10:50.979Z,98591.56
2022-10-31T08:13:55.797Z,98590.94
2022-10-31T08:17:03.027Z,98593.06
2022-10-31T08:20:09.197Z,98592.50
2022-10-31T08:23:15.492Z,98590.81
2022-10-31T08:26:20.457Z,98583.81
2022-10-31T08:29:25.867Z,98588.09
2022-10-31T08:32:32.476Z,98584.81
2022-10-31T08:35:40.231Z,98577.25
2022-10-31T08:38:45.442Z,98581.53
2022-10-31T08:41:50.160Z,98575.31
2022-10-31T08:44:57.135Z,98569.03
2022-10-31T08:48:05.743Z,98579.19
2022-10-31T08:51:12.023Z,98566.81
2022-10-31T08:54:17.225Z,98566.25
2022-10-31T08:57:22.230Z,98563.78
2022-10-31T09:00:27.702Z,98555.88
2022-10-31T09:03:35.098Z,98558.25
2022-10-31T09:06:46.424Z,98557.34
2022-10-31T09:10:02.230Z,98557.78
2022-10-31T09:13:10.451Z,98561.97
2022-10-31T09:16:17.589Z,98563.47
2022-10-31T09:19:24.370Z,98554.72
2022-10-31T09:22:29.359Z,98559.19
2022-10-31T09:25:35.886Z,98549.31
2022-10-31T09:28:42.592Z,98539.69
2022-10-31T09:31:47.940Z,98541.84
2022-10-31T09:34:54.619Z,98538.38
2022-10-31T09:38:02.191Z,98536.81
2022-10-31T09:41:19.285Z,98539.41
2022-10-31T09:44:29.972Z,98535.31
2022-10-31T09:47:49.196Z,98536.72
2022-10-31T09:51:03.288Z,98535.50
2022-10-31T09:54:14.409Z,98531.97
2022-10-31T09:57:25.530Z,98544.03
2022-10-31T10:00:30.681Z,98534.31
2022-10-31T10:03:41.090Z,98530.78
2022-10-31T10:06:50.936Z,98536.19
2022-10-31T10:09:56.256Z,98536.28
2022-10-31T10:13:20.170Z,98530.44
2022-10-31T10:16:39.027Z,98526.03
2022-10-31T10:19:57.731Z,98520.41
2022-10-31T10:23:31.190Z,98528.16
2022-10-31T10:26:40.485Z,98521.81
2022-10-31T10:29:55.981Z,98516.03
2022-10-31T10:33:08.957Z,98506.94
2022-10-31T10:36:19.444Z,98510.66
2022-10-31T10:39:34.683Z,98519.34
2022-10-31T10:42:56.983Z,98510.84
2022-10-31T10:46:33.062Z,98500.91
2022-10-31T10:49:46.168Z,98497.00
2022-10-31T10:53:00.521Z,98502.84
2022-10-31T10:56:17.765Z,98493.50
2022-10-31T10:59:25.235Z,98486.97
2022-10-31T11:02:33.950Z,98486.16
2022-10-31T11:05:42.232Z,98482.06
2022-10-31T11:08:48.889Z,98474.56
2022-10-31T11:11:56.006Z,98466.00
2022-10-31T11:15:03.039Z,98458.50
2022-10-31T11:18:08.428Z,98446.88
2022-10-31T11:21:24.773Z,98447.56
2022-10-31T11:24:30.684Z,98443.53
2022-10-31T11:27:36.907Z,98445.03
2022-10-31T11:30:48.836Z,98448.91
2022-10-31T11:33:59.635Z,98437.50
2022-10-31T11:37:12.555Z,98434.66
2022-10-31T11:40:23.253Z,98431.34
2022-10-31T11:43:31.099Z,98428.19
2022-10-31T11:46:40.207Z,98418.84
2022-10-31T11:49:46.739Z,98413.59
2022-10-31T11:52:52.239Z,98420.50
2022-10-31T11:56:15.611Z,98404.41
2022-10-31T11:59:34.434Z,98402.69
2022-10-31T12:02:41.757Z,98410.22
2022-10-31T12:05:48.951Z,98407.50
2022-10-31T12:08:53.798Z,98399.06
2022-10-31T12:12:20.781Z,98400.84
2022-10-31T12:15:33.697Z,98391.75
2022-10-31T12:19:00.920Z,98389.91
2022-10-31T12:22:11.891Z,98376.75
2022-10-31T12:25:29.705Z,98372.50
2022-10-31T12:29:05.558Z,98370.81
2022-10-31T12:32:24.657Z,98354.41
2022-10-31T12:35:43.180Z,98344.69
2022-10-31T12:39:06.450Z,98353.94
2022-10-31T12:42:21.151Z,98350.69
2022-10-31T12:45:49.057Z,98348.91
2022-10-31T12:49:22.208Z,98344.59
2022-10-31T12:52:40.612Z,98336.69
2022-10-31T12:55:58.156Z,98330.63
2022-10-31T12:59:08.091Z,98318.78
2022-10-31T13:02:23.012Z,98310.34
2022-10-31T13:05:34.062Z,98307.75
2022-10-31T13:08:45.481Z,98312.19
2022-10-31T13:11:54.056Z,98301.66
2022-10-31T13:15:03.009Z,98294.94
2022-10-31T13:18:16.166Z,98297.19
2022-10-31T13:21:26.211Z,98286.16
2022-10-31T13:24:35.489Z,98277.53
2022-10-31T13:27:46.011Z,98286.47
2022-10-31T13:30:50.973Z,98275.66
2022-10-31T13:33:59.443Z,98276.13
2022-10-31T13:37:24.035Z,98277.16
2022-10-31T13:40:40.707Z,98271.63
2022-10-31T13:44:01.813Z,98270.44
2022-10-31T13:47:30.238Z,98270.47
2022-10-31T13:50:36.347Z,98268.84
2022-10-31T13:53:47.428Z,98264.72
2022-10-31T13:56:53.602Z,98259.59
2022-10-31T14:00:01.144Z,98255.91
2022-10-31T14:03:06.292Z,98250.66
2022-10-31T14:06:12.823Z,98258.66
2022-10-31T14:09:33.704Z,98256.44
2022-10-31T14:12:39.890Z,98253.84
2022-10-31T14:15:44.966Z,98246.97
2022-10-31T14:18:51.052Z,98237.72
2022-10-31T14:21:53.744Z,98238.50
2022-10-31T14:24:57.806Z,98232.28
2022-10-31T14:28:02.481Z,98240.28
2022-10-31T14:31:37.739Z,98232.44
2022-10-31T14:34:43.462Z,98233.19
2022-10-31T14:38:05.599Z,98226.94
2022-10-31T14:41:35.252Z,98229.63
2022-10-31T14:45:01.380Z,98231.19
2022-10-31T14:48:17.223Z,98222.09
2022-10-31T14:51:22.390Z,98219.53
2022-10-31T14:54:30.181Z,98222.38
2022-10-31T14:57:37.571Z,98224.94
2022-10-31T15:00:40.334Z,98214.72
2022-10-31T15:04:10.255Z,98222.38
2022-10-31T15:07:14.521Z,98218.38
2022-10-31T15:10:22.905Z,98210.88
2022-10-31T15:13:26.974Z,98209.09
2022-10-31T15:16:35.236Z,98217.66
2022-10-31T15:19:38.677Z,98220.34
2022-10-31T15:22:41.371Z,98217.91
2022-10-31T15:25:46.609Z,98227.50
2022-10-31T15:29:08.305Z,98224.38
2022-10-31T15:32:23.262Z,98216.31
2022-10-31T15:35:27.532Z,98212.59
2022-10-31T15:38:31.241Z,98209.63
2022-10-31T15:41:36.892Z,98192.03
2022-10-31T15:44:44.500Z,98202.91
2022-10-31T15:47:50.198Z,98209.66
2022-10-31T15:50:56.958Z,98206.06
2022-10-31T15:54:00.902Z,98202.84
2022-10-31T15:57:03.893Z,98198.38
2022-10-31T16:00:22.753Z,98193.38
2022-10-31T16:03:28.009Z,98191.19
2022-10-31T16:06:31.701Z,98190.81
2022-10-31T16:09:34.411Z,98190.38
2022-10-31T16:12:39.142Z,98201.28
2022-10-31T16:15:59.329Z,98193.59
2022-10-31T16:19:15.309Z,98181.00
2022-10-31T16:22:23.576Z,98175.69
2022-10-31T16:25:29.410Z,98183.91
2022-10-31T16:28:39.984Z,98174.69
2022-10-31T16:31:44.959Z,98169.78
2022-10-31T16:34:47.641Z,98163.47
2022-10-31T16:37:50.315Z,98171.13
2022-10-31T16:40:54.188Z,98176.69
2022-10-31T16:43:56.919Z,98179.88
2022-10-31T16:47:13.980Z,98176.53
2022-10-31T16:50:19.429Z,98173.72
2022-10-31T16:53:22.554Z,98172.00
2022-10-31T16:56:30.188Z,98168.94
2022-10-31T16:59:34.217Z,98176.50
2022-10-31T17:02:38.911Z,98164.19
2022-10-31T17:05:41.702Z,98163.03
2022-10-31T17:08:44.345Z,98173.03
2022-10-31T17:11:50.061Z,98171.72
2022-10-31T17:14:56.501Z,98176.38
2022-10-31T17:18:00.837Z,98172.00
2022-10-31T17:21:06.120Z,98159.81
2022-10-31T17:24:13.010Z,98169.59
2022-10-31T17:27:15.676Z,98177.59
2022-10-31T17:30:19.582Z,98185.84
2022-10-31T17:33:23.902Z,98184.22
2022-10-31T17:36:27.238Z,98182.84
2022-10-31T17:39:29.899Z,98186.84
2022-10-31T17:42:33.365Z,98184.72
2022-10-31T17:45:35.967Z,98174.03
2022-10-31T17:48:40.609Z,98173.81
2022-10-31T17:51:43.250Z,98158.75
2022-10-31T17:54:46.120Z,98152.56
2022-10-31T17:57:48.768Z,98151.25
2022-10-31T18:00:51.567Z,98149.44
2022-10-31T18:03:55.773Z,98149.94
2022-10-31T18:06:58.412Z,98155.38
2022-10-31T18:10:01.477Z,98148.19
2022-10-31T18:13:04.511Z,98140.47
2022-10-31T18:16:10.719Z,98143.66
2022-10-31T18:19:16.670Z,98152.56
2022-10-31T18:22:19.355Z,98152.66
2022-10-31T18:25:22.045Z,98153.28
2022-10-31T18:28:24.718Z,98141.78
2022-10-31T18:31:27.725Z,98120.59
2022-10-31T18:34:31.728Z,98089.44
2022-10-31T18:37:34.360Z,98085.63
2022-10-31T18:40:37.301Z,98091.53
2022-10-31T18:43:40.025Z,98083.88
2022-10-31T18:46:42.664Z,98095.47
2022-10-31T18:49:46.910Z,98096.41
2022-10-31T18:52:49.566Z,98089.09
2022-10-31T18:55:52.180Z,98092.28
2022-10-31T18:58:54.874Z,98076.13
2022-10-31T19:01:57.680Z,98072.84
2022-10-31T19:05:01.973Z,98083.50
2022-10-31T19:08:04.893Z,98084.66
2022-10-31T19:11:09.719Z,98105.03
2022-10-31T19:14:14.847Z,98117.13
2022-10-31T19:17:17.471Z,98157.28
2022-10-31T19:20:21.439Z,98168.78
2022-10-31T19:23:24.121Z,98154.00
2022-10-31T19:26:27.695Z,98150.50
2022-10-31T19:29:30.412Z,98137.72
2022-10-31T19:32:38.136Z,98157.19
2022-10-31T19:35:44.677Z,98158.50
2022-10-31T19:38:50.938Z,98160.91
2022-10-31T19:41:56.377Z,98175.19
2022-10-31T19:45:01.497Z,98175.75
2022-10-31T19:48:06.202Z,98152.88
2022-10-31T19:51:14.657Z,98142.69
2022-10-31T19:54:19.444Z,98140.56
2022-10-31T19:57:41.966Z,98144.75
2022-10-31T20:00:49.547Z,98144.03
2022-10-31T20:03:54.680Z,98137.09
2022-10-31T20:07:01.073Z,98148.31
2022-10-31T20:10:06.433Z,98139.81
2022-10-31T20:13:11.835Z,98150.69
2022-10-31T20:16:18.137Z,98158.25
2022-10-31T20:19:24.638Z,98165.34
2022-10-31T20:22:30.967Z,98161.69
2022-10-31T20:25:36.400Z,98170.06
2022-10-31T20:28:43.673Z,98171.63
2022-10-31T20:31:50.293Z,98168.66
2022-10-31T20:34:55.162Z,98163.28
2022-10-31T20:38:01.428Z,98160.66
2022-10-31T20:41:08.017Z,98154.97
2022-10-31T20:44:12.710Z,98154.19
2022-10-31T20:47:20.570Z,98154.19
2022-10-31T20:50:29.869Z,98147.19
2022-10-31T20:53:35.972Z,98156.38
2022-10-31T20:56:42.197Z,98153.72
2022-10-31T20:59:47.755Z,98153.81
2022-10-31T21:02:52.244Z,98148.94
2022-10-31T21:05:58.209Z,98154.66
2022-10-31T21:09:04.300Z,98173.50
2022-10-31T21:12:09.213Z,98180.50
2022-10-31T21:15:17.544Z,98189.25
2022-10-31T21:18:24.246Z,98195.06
2022-10-31T21:21:32.757Z,98195.88
2022-10-31T21:24:39.669Z,98199.91
2022-10-31T21:27:44.749Z,98195.56
2022-10-31T21:30:52.171Z,98199.09
2022-10-31T21:33:57.776Z,98208.81
2022-10-31T21:37:02.746Z,98207.56
2022-10-31T21:40:11.030Z,98206.03
2022-10-31T21:43:16.019Z,98201.78
2022-10-31T21:46:22.319Z,98204.25
2022-10-31T21:49:26.936Z,98205.91
2022-10-31T21:52:33.741Z,98204.13
2022-10-31T21:55:38.662Z,98199.25
2022-10-31T21:58:43.344Z,98209.28
2022-10-31T22:01:48.280Z,98207.69
2022-10-31T22:04:52.868Z,98208.84
2022-10-31T22:07:57.933Z,98206.41
2022-10-31T22:11:07.906Z,98190.03
2022-10-31T22:14:15.403Z,98183.06
2022-10-31T22:17:20.496Z,98173.13
2022-10-31T22:20:26.457Z,98175.28
2022-10-31T22:23:31.407Z,98166.44
2022-10-31T22:26:40.887Z,98178.09
2022-10-31T22:29:46.198Z,98187.97
2022-10-31T22:32:51.305Z,98178.81
2022-10-31T22:35:56.093Z,98177.28
2022-10-31T22:39:02.324Z,98171.09
2022-10-31T22:42:13.045Z,98172.47
2022-10-31T22:45:18.220Z,98159.28
2022-10-31T22:48:23.114Z,98153.97
2022-10-31T22:51:29.374Z,98149.41
2022-10-31T22:54:34.635Z,98143.22
2022-10-31T22:57:41.550Z,98149.19
2022-10-31T23:00:46.526Z,98155.34
2022-10-31T23:03:52.628Z,98156.16
2022-10-31T23:06:57.813Z,98157.81
2022-10-31T23:10:02.332Z,98156.47
2022-10-31T23:13:25.115Z,98179.38
2022-10-31T23:16:29.968Z,98173.47
2022-10-31T23:19:34.872Z,98158.94
2022-10-31T23:22:39.421Z,98165.94
2022-10-31T23:26:03.377Z,98160.03
2022-10-31T23:29:09.930Z,98172.38
2022-10-31T23:32:19.818Z,98164.91
2022-10-31T23:35:24.704Z,98178.13
2022-10-31T23:38:31.370Z,98179.22
2022-10-31T23:41:36.547Z,98184.84
2022-10-31T23:44:43.204Z,98171.41
2022-10-31T23:47:48.293Z,98171.75
2022-10-31T23:50:53.209Z,98162.09
2022-10-31T23:53:58.062Z,98171.19
2022-10-31T23:57:03.426Z,98170.94
